sensor_id;sensor_type;location;lat;lon;timestamp;pressure;altitude;pressure_sealevel;temperature;humidity
66703;BME280;60933;46.398;-63.798;2024-01-15T00:00:55;100382.06;;;-0.03;100.00
66703;BME280;60933;46.398;-63.798;2024-01-15T00:03:24;100360.06;;;-0.04;100.00
66703;BME280;60933;46.398;-63.798;2024-01-15T00:05:52;100354.16;;;-0.04;100.00
66703;BME280;60933;46.398;-63.798;2024-01-15T00:08:20;100376.97;;;-0.06;100.00
66703;BME280;60933;46.398;-63.798;2024-01-15T00:10:48;100365.97;;;-0.06;100.00
66703;BME280;60933;46.398;-63.798;2024-01-15T00:13:17;100375.28;;;-0.05;100.00
66703;BME280;60933;46.398;-63.798;2024-01-15T00:15:45;100364.25;;;-0.07;100.00
66703;BME280;60933;46.398;-63.798;2024-01-15T00:18:14;100360.03;;;-0.07;100.00
66703;BME280;60933;46.398;-63.798;2024-01-15T00:20:42;100368.53;;;-0.03;100.00
66703;BME280;60933;46.398;-63.798;2024-01-15T00:23:11;100361.75;;;-0.04;100.00
66703;BME280;60933;46.398;-63.798;2024-01-15T00:25:41;100349.03;;;-0.07;100.00
66703;BME280;60933;46.398;-63.798;2024-01-15T00:28:09;100360.00;;;-0.10;100.00
66703;BME280;60933;46.398;-63.798;2024-01-15T00:30:37;100370.13;;;-0.10;100.00
66703;BME280;60933;46.398;-63.798;2024-01-15T00:33:06;100368.41;;;-0.12;100.00
66703;BME280;60933;46.398;-63.798;2024-01-15T00:35:35;100368.41;;;-0.14;100.00
66703;BME280;60933;46.398;-63.798;2024-01-15T00:38:03;100364.22;;;-0.12;100.00
66703;BME280;60933;46.398;-63.798;2024-01-15T00:40:31;100363.41;;;-0.06;100.00
66703;BME280;60933;46.398;-63.798;2024-01-15T00:43:00;100360.84;;;-0.09;100.00
66703;BME280;60933;46.398;-63.798;2024-01-15T00:45:30;100360.06;;;-0.04;100.00
66703;BME280;60933;46.398;-63.798;2024-01-15T00:47:58;100371.97;;;0.02;100.00
66703;BME280;60933;46.398;-63.798;2024-01-15T00:50:29;100372.03;;;0.05;100.00
66703;BME280;60933;46.398;-63.798;2024-01-15T00:52:58;100358.47;;;0.05;100.00
66703;BME280;60933;46.398;-63.798;2024-01-15T00:55:28;100362.72;;;0.04;100.00
66703;BME280;60933;46.398;-63.798;2024-01-15T00:57:59;100372.03;;;0.04;100.00
66703;BME280;60933;46.398;-63.798;2024-01-15T01:00:28;100372.03;;;0.07;100.00
66703;BME280;60933;46.398;-63.798;2024-01-15T01:02:57;100361.00;;;0.05;100.00
66703;BME280;60933;46.398;-63.798;2024-01-15T01:05:26;100364.50;;;0.11;100.00
66703;BME280;60933;46.398;-63.798;2024-01-15T01:07:55;100348.31;;;0.05;100.00
66703;BME280;60933;46.398;-63.798;2024-01-15T01:10:23;100355.97;;;0.08;100.00
66703;BME280;60933;46.398;-63.798;2024-01-15T01:12:52;100356.03;;;0.11;100.00
66703;BME280;60933;46.398;-63.798;2024-01-15T01:15:21;100355.97;;;0.06;100.00
66703;BME280;60933;46.398;-63.798;2024-01-15T01:17:50;100352.56;;;0.03;100.00
66703;BME280;60933;46.398;-63.798;2024-01-15T01:20:19;100351.56;;;-0.07;100.00
66703;BME280;60933;46.398;-63.798;2024-01-15T01:22:47;100360.84;;;-0.09;100.00
66703;BME280;60933;46.398;-63.798;2024-01-15T01:25:16;100350.59;;;-0.19;100.00
66703;BME280;60933;46.398;-63.798;2024-01-15T01:27:44;100353.94;;;-0.20;100.00
66703;BME280;60933;46.398;-63.798;2024-01-15T01:30:13;100345.56;;;-0.15;100.00
66703;BME280;60933;46.398;-63.798;2024-01-15T01:32:41;100340.38;;;-0.22;100.00
66703;BME280;60933;46.398;-63.798;2024-01-15T01:35:10;100334.34;;;-0.30;100.00
66703;BME280;60933;46.398;-63.798;2024-01-15T01:37:38;100363.06;;;-0.33;100.00
66703;BME280;60933;46.398;-63.798;2024-01-15T01:40:07;100357.09;;;-0.36;100.00
66703;BME280;60933;46.398;-63.798;2024-01-15T01:42:35;100342.75;;;-0.36;100.00
66703;BME280;60933;46.398;-63.798;2024-01-15T01:45:04;100338.50;;;-0.37;100.00
66703;BME280;60933;46.398;-63.798;2024-01-15T01:47:33;100324.94;;;-0.40;100.00
66703;BME280;60933;46.398;-63.798;2024-01-15T01:50:02;100326.69;;;-0.36;100.00
66703;BME280;60933;46.398;-63.798;2024-01-15T01:52:31;100330.91;;;-0.35;100.00
66703;BME280;60933;46.398;-63.798;2024-01-15T01:55:02;100326.69;;;-0.36;100.00
66703;BME280;60933;46.398;-63.798;2024-01-15T01:57:33;100313.13;;;-0.38;100.00
66703;BME280;60933;46.398;-63.798;2024-01-15T02:00:03;100328.31;;;-0.41;100.00
66703;BME280;60933;46.398;-63.798;2024-01-15T02:02:34;100330.78;;;-0.46;100.00
66703;BME280;60933;46.398;-63.798;2024-01-15T02:05:05;100344.28;;;-0.47;100.00
66703;BME280;60933;46.398;-63.798;2024-01-15T02:07:35;100343.44;;;-0.47;100.00
66703;BME280;60933;46.398;-63.798;2024-01-15T02:10:04;100347.63;;;-0.50;100.00
66703;BME280;60933;46.398;-63.798;2024-01-15T02:12:34;100351.78;;;-0.55;100.00
66703;BME280;60933;46.398;-63.798;2024-01-15T02:15:03;100341.59;;;-0.58;100.00
66703;BME280;60933;46.398;-63.798;2024-01-15T02:18:01;100352.50;;;-0.64;100.00
66703;BME280;60933;46.398;-63.798;2024-01-15T02:20:31;100347.34;;;-0.68;100.00
66703;BME280;60933;46.398;-63.798;2024-01-15T02:23:14;100343.00;;;-0.78;100.00
66703;BME280;60933;46.398;-63.798;2024-01-15T02:25:47;100338.63;;;-0.87;100.00
66703;BME280;60933;46.398;-63.798;2024-01-15T02:28:17;100326.69;;;-0.94;100.00
66703;BME280;60933;46.398;-63.798;2024-01-15T02:30:45;100336.81;;;-0.94;100.00
66703;BME280;60933;46.398;-63.798;2024-01-15T02:33:14;100327.47;;;-1.00;100.00
66703;BME280;60933;46.398;-63.798;2024-01-15T02:35:42;100333.28;;;-1.06;100.00
66703;BME280;60933;46.398;-63.798;2024-01-15T02:38:11;100338.25;;;-1.12;100.00
66703;BME280;60933;46.398;-63.798;2024-01-15T02:40:39;100339.81;;;-1.19;100.00
66703;BME280;60933;46.398;-63.798;2024-01-15T02:43:07;100343.16;;;-1.21;100.00
66703;BME280;60933;46.398;-63.798;2024-01-15T02:45:35;100344.69;;;-1.31;100.00
66703;BME280;60933;46.398;-63.798;2024-01-15T02:48:04;100364.94;;;-1.31;100.00
66703;BME280;60933;46.398;-63.798;2024-01-15T02:50:32;100361.44;;;-1.38;100.00
66703;BME280;60933;46.398;-63.798;2024-01-15T02:53:01;100353.84;;;-1.38;100.00
66703;BME280;60933;46.398;-63.798;2024-01-15T02:55:29;100359.72;;;-1.39;100.00
66703;BME280;60933;46.398;-63.798;2024-01-15T02:57:57;100362.25;;;-1.39;100.00
66703;BME280;60933;46.398;-63.798;2024-01-15T03:00:25;100351.25;;;-1.41;100.00
66703;BME280;60933;46.398;-63.798;2024-01-15T03:02:54;100335.22;;;-1.41;100.00
66703;BME280;60933;46.398;-63.798;2024-01-15T03:05:23;100338.53;;;-1.44;100.00
66703;BME280;60933;46.398;-63.798;2024-01-15T03:07:51;100323.28;;;-1.49;100.00
66703;BME280;60933;46.398;-63.798;2024-01-15T03:10:19;100324.97;;;-1.48;100.00
66703;BME280;60933;46.398;-63.798;2024-01-15T03:12:47;100306.38;;;-1.50;100.00
66703;BME280;60933;46.398;-63.798;2024-01-15T03:15:16;100309.88;;;-1.41;100.00
66703;BME280;60933;46.398;-63.798;2024-01-15T03:17:44;100320.09;;;-1.38;100.00
66703;BME280;60933;46.398;-63.798;2024-01-15T03:20:12;100328.53;;;-1.38;100.00
66703;BME280;60933;46.398;-63.798;2024-01-15T03:22:41;100327.72;;;-1.34;100.00
66703;BME280;60933;46.398;-63.798;2024-01-15T03:25:09;100328.59;;;-1.33;100.00
66703;BME280;60933;46.398;-63.798;2024-01-15T03:27:37;100326.91;;;-1.34;100.00
66703;BME280;60933;46.398;-63.798;2024-01-15T03:30:06;100320.09;;;-1.37;100.00
66703;BME280;60933;46.398;-63.798;2024-01-15T03:32:35;100326.00;;;-1.38;100.00
66703;BME280;60933;46.398;-63.798;2024-01-15T03:35:04;100342.88;;;-1.38;100.00
66703;BME280;60933;46.398;-63.798;2024-01-15T03:37:32;100341.91;;;-1.44;100.00
66703;BME280;60933;46.398;-63.798;2024-01-15T03:40:01;100337.75;;;-1.40;100.00
66703;BME280;60933;46.398;-63.798;2024-01-15T03:42:30;100345.34;;;-1.41;100.00
66703;BME280;60933;46.398;-63.798;2024-01-15T03:44:58;100345.44;;;-1.35;100.00
66703;BME280;60933;46.398;-63.798;2024-01-15T03:47:26;100339.47;;;-1.39;100.00
66703;BME280;60933;46.398;-63.798;2024-01-15T03:49:55;100351.41;;;-1.32;100.00
66703;BME280;60933;46.398;-63.798;2024-01-15T03:52:23;100349.66;;;-1.36;100.00
66703;BME280;60933;46.398;-63.798;2024-01-15T03:54:51;100348.78;;;-1.36;100.00
66703;BME280;60933;46.398;-63.798;2024-01-15T03:57:20;100348.00;;;-1.34;100.00
66703;BME280;60933;46.398;-63.798;2024-01-15T03:59:48;100349.84;;;-1.25;100.00
66703;BME280;60933;46.398;-63.798;2024-01-15T04:02:16;100344.88;;;-1.19;100.00
66703;BME280;60933;46.398;-63.798;2024-01-15T04:04:44;100344.88;;;-1.20;100.00
66703;BME280;60933;46.398;-63.798;2024-01-15T04:07:12;100338.03;;;-1.24;100.00
66703;BME280;60933;46.398;-63.798;2024-01-15T04:09:41;100346.41;;;-1.29;100.00
66703;BME280;60933;46.398;-63.798;2024-01-15T04:12:09;100348.88;;;-1.33;100.00
66703;BME280;60933;46.398;-63.798;2024-01-15T04:14:37;100353.84;;;-1.36;100.00
66703;BME280;60933;46.398;-63.798;2024-01-15T04:17:05;100348.75;;;-1.39;100.00
66703;BME280;60933;46.398;-63.798;2024-01-15T04:19:34;100341.06;;;-1.46;100.00
66703;BME280;60933;46.398;-63.798;2024-01-15T04:22:02;100346.97;;;-1.44;100.00
66703;BME280;60933;46.398;-63.798;2024-01-15T04:24:31;100351.22;;;-1.44;100.00
66703;BME280;60933;46.398;-63.798;2024-01-15T04:27:00;100346.97;;;-1.44;100.00
66703;BME280;60933;46.398;-63.798;2024-01-15T04:29:28;100353.66;;;-1.47;100.00
66703;BME280;60933;46.398;-63.798;2024-01-15T04:31:56;100343.53;;;-1.49;100.00
66703;BME280;60933;46.398;-63.798;2024-01-15T04:34:25;100347.69;;;-1.51;100.00
66703;BME280;60933;46.398;-63.798;2024-01-15T04:36:54;100358.66;;;-1.52;100.00
66703;BME280;60933;46.398;-63.798;2024-01-15T04:39:22;100357.75;;;-1.55;100.00
66703;BME280;60933;46.398;-63.798;2024-01-15T04:41:50;100356.00;;;-1.60;100.00
66703;BME280;60933;46.398;-63.798;2024-01-15T04:44:19;100355.91;;;-1.64;100.00
66703;BME280;60933;46.398;-63.798;2024-01-15T04:46:46;100368.63;;;-1.61;100.00
66703;BME280;60933;46.398;-63.798;2024-01-15T04:49:15;100370.28;;;-1.63;100.00
66703;BME280;60933;46.398;-63.798;2024-01-15T04:51:43;100375.28;;;-1.65;100.00
66703;BME280;60933;46.398;-63.798;2024-01-15T04:54:12;100378.59;;;-1.67;100.00
66703;BME280;60933;46.398;-63.798;2024-01-15T04:56:40;100366.63;;;-1.76;100.00
66703;BME280;60933;46.398;-63.798;2024-01-15T04:59:08;100391.97;;;-1.75;100.00
66703;BME280;60933;46.398;-63.798;2024-01-15T05:01:36;100396.94;;;-1.79;100.00
66703;BME280;60933;46.398;-63.798;2024-01-15T05:04:04;100410.34;;;-1.85;100.00
66703;BME280;60933;46.398;-63.798;2024-01-15T05:06:33;100414.50;;;-1.87;100.00
66703;BME280;60933;46.398;-63.798;2024-01-15T05:09:01;100425.34;;;-1.93;100.00
66703;BME280;60933;46.398;-63.798;2024-01-15T05:11:29;100432.84;;;-1.97;100.00
66703;BME280;60933;46.398;-63.798;2024-01-15T05:13:57;100427.66;;;-2.02;100.00
66703;BME280;60933;46.398;-63.798;2024-01-15T05:16:25;100444.56;;;-2.01;100.00
66703;BME280;60933;46.398;-63.798;2024-01-15T05:18:54;100447.88;;;-2.03;100.00
66703;BME280;60933;46.398;-63.798;2024-01-15T05:21:22;100453.75;;;-2.04;100.00
66703;BME280;60933;46.398;-63.798;2024-01-15T05:23:50;100450.34;;;-2.07;100.00
66703;BME280;60933;46.398;-63.798;2024-01-15T05:26:18;100450.34;;;-2.07;100.00
66703;BME280;60933;46.398;-63.798;2024-01-15T05:28:46;100456.25;;;-2.08;100.00
66703;BME280;60933;46.398;-63.798;2024-01-15T05:31:14;100465.47;;;-2.10;100.00
66703;BME280;60933;46.398;-63.798;2024-01-15T05:33:43;100468.88;;;-2.08;100.00
66703;BME280;60933;46.398;-63.798;2024-01-15T05:36:11;100472.13;;;-2.13;100.00
66703;BME280;60933;46.398;-63.798;2024-01-15T05:38:39;100474.66;;;-2.13;100.00
66703;BME280;60933;46.398;-63.798;2024-01-15T05:41:07;100479.63;;;-2.16;100.00
66703;BME280;60933;46.398;-63.798;2024-01-15T05:43:36;100484.66;;;-2.18;100.00
66703;BME280;60933;46.398;-63.798;2024-01-15T05:46:04;100490.53;;;-2.19;100.00
66703;BME280;60933;46.398;-63.798;2024-01-15T05:48:32;100493.84;;;-2.21;100.00
66703;BME280;60933;46.398;-63.798;2024-01-15T05:51:01;100497.97;;;-2.25;100.00
66703;BME280;60933;46.398;-63.798;2024-01-15T05:53:29;100509.72;;;-2.27;100.00
66703;BME280;60933;46.398;-63.798;2024-01-15T05:55:58;100497.84;;;-2.31;100.00
66703;BME280;60933;46.398;-63.798;2024-01-15T05:58:26;100501.91;;;-2.36;100.00
66703;BME280;60933;46.398;-63.798;2024-01-15T06:00:54;100511.09;;;-2.40;100.00
66703;BME280;60933;46.398;-63.798;2024-01-15T06:03:22;100520.25;;;-2.45;100.00
66703;BME280;60933;46.398;-63.798;2024-01-15T06:05:51;100501.38;;;-2.60;100.00
66703;BME280;60933;46.398;-63.798;2024-01-15T06:08:22;100523.34;;;-2.56;100.00
66703;BME280;60933;46.398;-63.798;2024-01-15T06:10:50;100523.22;;;-2.62;100.00
66703;BME280;60933;46.398;-63.798;2024-01-15T06:13:18;100528.13;;;-2.66;100.00
66703;BME280;60933;46.398;-63.798;2024-01-15T06:15:46;100529.56;;;-2.76;100.00
66703;BME280;60933;46.398;-63.798;2024-01-15T06:18:15;100546.22;;;-2.83;100.00
66703;BME280;60933;46.398;-63.798;2024-01-15T06:20:43;100563.91;;;-2.83;100.00
66703;BME280;60933;46.398;-63.798;2024-01-15T06:23:11;100579.72;;;-2.90;100.00
66703;BME280;60933;46.398;-63.798;2024-01-15T06:25:40;100604.09;;;-2.92;100.00
66703;BME280;60933;46.398;-63.798;2024-01-15T06:28:08;100606.53;;;-2.95;100.00
66703;BME280;60933;46.398;-63.798;2024-01-15T06:30:40;100607.22;;;-3.01;100.00
66703;BME280;60933;46.398;-63.798;2024-01-15T06:33:09;100601.97;;;-3.09;100.00
66703;BME280;60933;46.398;-63.798;2024-01-15T06:35:37;100612.75;;;-3.13;100.00
66703;BME280;60933;46.398;-63.798;2024-01-15T06:38:06;100621.16;;;-3.14;100.00
66703;BME280;60933;46.398;-63.798;2024-01-15T06:40:34;100619.25;;;-3.21;100.00
66703;BME280;60933;46.398;-63.798;2024-01-15T06:43:03;100649.47;;;-3.24;100.00
66703;BME280;60933;46.398;-63.798;2024-01-15T06:45:31;100643.38;;;-3.31;100.00
66703;BME280;60933;46.398;-63.798;2024-01-15T06:48:00;100655.84;;;-3.36;100.00
66703;BME280;60933;46.398;-63.798;2024-01-15T06:50:31;100668.47;;;-3.36;100.00
66703;BME280;60933;46.398;-63.798;2024-01-15T06:53:00;100664.06;;;-3.43;100.00
66703;BME280;60933;46.398;-63.798;2024-01-15T06:55:28;100684.41;;;-3.38;100.00
66703;BME280;60933;46.398;-63.798;2024-01-15T06:57:56;100678.34;;;-3.43;100.00
66703;BME280;60933;46.398;-63.798;2024-01-15T07:00:25;100683.44;;;-3.42;100.00
66703;BME280;60933;46.398;-63.798;2024-01-15T07:02:53;100691.06;;;-3.40;100.00
66703;BME280;60933;46.398;-63.798;2024-01-15T07:05:22;100693.53;;;-3.42;100.00
66703;BME280;60933;46.398;-63.798;2024-01-15T07:07:51;100707.91;;;-3.39;100.00
66703;BME280;60933;46.398;-63.798;2024-01-15T07:10:19;100722.91;;;-3.44;100.00
66703;BME280;60933;46.398;-63.798;2024-01-15T07:12:47;100715.16;;;-3.50;100.00
66703;BME280;60933;46.398;-63.798;2024-01-15T07:15:15;100721.16;;;-3.46;100.00
66703;BME280;60933;46.398;-63.798;2024-01-15T07:17:43;100735.38;;;-3.48;100.00
66703;BME280;60933;46.398;-63.798;2024-01-15T07:20:12;100731.97;;;-3.51;100.00
66703;BME280;60933;46.398;-63.798;2024-01-15T07:22:40;100736.16;;;-3.51;100.00
66703;BME280;60933;46.398;-63.798;2024-01-15T07:25:10;100742.75;;;-3.55;100.00
66703;BME280;60933;46.398;-63.798;2024-01-15T07:27:40;100751.25;;;-3.53;100.00
66703;BME280;60933;46.398;-63.798;2024-01-15T07:30:12;100742.59;;;-3.59;100.00
66703;BME280;60933;46.398;-63.798;2024-01-15T07:32:41;100746.84;;;-3.58;100.00
66703;BME280;60933;46.398;-63.798;2024-01-15T07:35:09;100747.66;;;-3.59;100.00
66703;BME280;60933;46.398;-63.798;2024-01-15T07:37:38;100761.09;;;-3.60;100.00
66703;BME280;60933;46.398;-63.798;2024-01-15T07:40:06;100764.34;;;-3.63;100.00
66703;BME280;60933;46.398;-63.798;2024-01-15T07:42:36;100770.97;;;-3.67;100.00
66703;BME280;60933;46.398;-63.798;2024-01-15T07:45:06;100762.44;;;-3.70;100.00
66703;BME280;60933;46.398;-63.798;2024-01-15T07:47:34;100782.69;;;-3.69;100.00
66703;BME280;60933;46.398;-63.798;2024-01-15T07:50:03;100766.69;;;-3.69;100.00
66703;BME280;60933;46.398;-63.798;2024-01-15T07:52:32;100787.66;;;-3.70;100.00
66703;BME280;60933;46.398;-63.798;2024-01-15T07:55:01;100791.75;;;-3.74;100.00
66703;BME280;60933;46.398;-63.798;2024-01-15T07:57:32;100814.38;;;-3.77;100.00
66703;BME280;60933;46.398;-63.798;2024-01-15T08:00:00;100806.69;;;-3.80;100.00
66703;BME280;60933;46.398;-63.798;2024-01-15T08:02:29;100803.06;;;-3.87;100.00
66703;BME280;60933;46.398;-63.798;2024-01-15T08:05:01;100811.19;;;-3.95;100.00
66703;BME280;60933;46.398;-63.798;2024-01-15T08:07:30;100824.59;;;-3.97;100.00
66703;BME280;60933;46.398;-63.798;2024-01-15T08:09:58;100823.75;;;-3.97;100.00
66703;BME280;60933;46.398;-63.798;2024-01-15T08:12:27;100850.59;;;-3.98;100.00
66703;BME280;60933;46.398;-63.798;2024-01-15T08:14:56;100849.56;;;-4.04;100.00
66703;BME280;60933;46.398;-63.798;2024-01-15T08:17:24;100860.44;;;-4.05;100.00
66703;BME280;60933;46.398;-63.798;2024-01-15T08:19:56;100864.69;;;-4.04;100.00
66703;BME280;60933;46.398;-63.798;2024-01-15T08:22:24;100874.59;;;-4.09;100.00
66703;BME280;60933;46.398;-63.798;2024-01-15T08:24:54;100855.09;;;-4.13;100.00
66703;BME280;60933;46.398;-63.798;2024-01-15T08:27:23;100861.75;;;-4.15;100.00
66703;BME280;60933;46.398;-63.798;2024-01-15T08:29:51;100856.72;;;-4.15;100.00
66703;BME280;60933;46.398;-63.798;2024-01-15T08:32:19;100859.91;;;-4.19;100.00
66703;BME280;60933;46.398;-63.798;2024-01-15T08:34:47;100859.50;;;-4.30;100.00
66703;BME280;60933;46.398;-63.798;2024-01-15T08:37:17;100886.72;;;-4.21;100.00
66703;BME280;60933;46.398;-63.798;2024-01-15T08:39:45;100892.41;;;-4.27;100.00
66703;BME280;60933;46.398;-63.798;2024-01-15T08:42:16;100914.13;;;-4.31;100.00
66703;BME280;60933;46.398;-63.798;2024-01-15T08:44:44;100922.28;;;-4.36;100.00
66703;BME280;60933;46.398;-63.798;2024-01-15T08:47:14;100922.91;;;-4.42;98.42
66703;BME280;60933;46.398;-63.798;2024-01-15T08:49:43;100920.22;;;-4.47;95.56
66703;BME280;60933;46.398;-63.798;2024-01-15T08:52:12;100930.28;;;-4.47;94.23
66703;BME280;60933;46.398;-63.798;2024-01-15T08:54:41;100946.75;;;-4.55;92.68
66703;BME280;60933;46.398;-63.798;2024-01-15T08:57:09;100939.88;;;-4.59;91.66
66703;BME280;60933;46.398;-63.798;2024-01-15T08:59:39;100932.00;;;-4.67;91.12
66703;BME280;60933;46.398;-63.798;2024-01-15T09:02:08;100944.50;;;-4.70;89.96
66703;BME280;60933;46.398;-63.798;2024-01-15T09:04:36;100937.53;;;-4.75;90.48
66703;BME280;60933;46.398;-63.798;2024-01-15T09:07:05;100961.06;;;-4.75;90.34
66703;BME280;60933;46.398;-63.798;2024-01-15T09:09:36;100970.97;;;-4.80;90.15
66703;BME280;60933;46.398;-63.798;2024-01-15T09:12:05;100973.41;;;-4.81;88.63
66703;BME280;60933;46.398;-63.798;2024-01-15T09:14:34;100978.44;;;-4.81;88.94
66703;BME280;60933;46.398;-63.798;2024-01-15T09:17:06;100998.41;;;-4.86;88.61
66703;BME280;60933;46.398;-63.798;2024-01-15T09:19:34;100992.38;;;-4.89;88.34
66703;BME280;60933;46.398;-63.798;2024-01-15T09:22:03;101004.13;;;-4.90;88.32
66703;BME280;60933;46.398;-63.798;2024-01-15T09:24:31;101018.22;;;-4.94;87.35
66703;BME280;60933;46.398;-63.798;2024-01-15T09:26:59;101011.41;;;-4.96;87.85
66703;BME280;60933;46.398;-63.798;2024-01-15T09:29:27;101030.69;;;-4.97;88.38
66703;BME280;60933;46.398;-63.798;2024-01-15T09:31:56;101034.06;;;-4.96;89.10
66703;BME280;60933;46.398;-63.798;2024-01-15T09:34:24;101029.69;;;-5.00;87.83
66703;BME280;60933;46.398;-63.798;2024-01-15T09:36:53;101031.34;;;-5.01;86.87
66703;BME280;60933;46.398;-63.798;2024-01-15T09:39:21;101038.03;;;-5.01;85.92
66703;BME280;60933;46.398;-63.798;2024-01-15T09:41:51;101024.75;;;-4.99;85.27
66703;BME280;60933;46.398;-63.798;2024-01-15T09:44:19;101030.22;;;-5.07;82.89
66703;BME280;60933;46.398;-63.798;2024-01-15T09:46:47;101034.84;;;-5.17;83.01
66703;BME280;60933;46.398;-63.798;2024-01-15T09:49:18;101052.03;;;-5.08;82.73
66703;BME280;60933;46.398;-63.798;2024-01-15T09:51:47;101058.59;;;-5.12;82.45
66703;BME280;60933;46.398;-63.798;2024-01-15T09:54:29;101072.81;;;-5.12;82.90
66703;BME280;60933;46.398;-63.798;2024-01-15T09:56:59;101073.75;;;-5.10;82.83
66703;BME280;60933;46.398;-63.798;2024-01-15T09:59:28;101071.75;;;-5.17;82.84
66703;BME280;60933;46.398;-63.798;2024-01-15T10:01:57;101082.81;;;-5.14;82.80
66703;BME280;60933;46.398;-63.798;2024-01-15T10:04:26;101080.25;;;-5.15;83.04
66703;BME280;60933;46.398;-63.798;2024-01-15T10:06:56;101095.13;;;-5.20;83.05
66703;BME280;60933;46.398;-63.798;2024-01-15T10:09:26;101093.94;;;-5.28;83.48
66703;BME280;60933;46.398;-63.798;2024-01-15T10:11:54;101112.53;;;-5.25;84.14
66703;BME280;60933;46.398;-63.798;2024-01-15T10:14:22;101115.13;;;-5.23;84.88
66703;BME280;60933;46.398;-63.798;2024-01-15T10:16:50;101120.75;;;-5.29;84.58
66703;BME280;60933;46.398;-63.798;2024-01-15T10:19:19;101130.94;;;-5.26;84.97
66703;BME280;60933;46.398;-63.798;2024-01-15T10:21:47;101139.56;;;-5.20;84.76
66703;BME280;60933;46.398;-63.798;2024-01-15T10:24:15;101146.31;;;-5.19;84.15
66703;BME280;60933;46.398;-63.798;2024-01-15T10:26:43;101148.78;;;-5.21;84.34
66703;BME280;60933;46.398;-63.798;2024-01-15T10:29:14;101173.00;;;-5.23;84.67
66703;BME280;60933;46.398;-63.798;2024-01-15T10:31:43;101157.84;;;-5.25;85.41
66703;BME280;60933;46.398;-63.798;2024-01-15T10:34:13;101163.88;;;-5.21;85.72
66703;BME280;60933;46.398;-63.798;2024-01-15T10:36:45;101177.47;;;-5.17;86.30
66703;BME280;60933;46.398;-63.798;2024-01-15T10:39:15;101164.88;;;-5.17;86.79
66703;BME280;60933;46.398;-63.798;2024-01-15T10:41:43;101193.75;;;-5.11;87.07
66703;BME280;60933;46.398;-63.798;2024-01-15T10:44:12;101175.22;;;-5.11;87.46
66703;BME280;60933;46.398;-63.798;2024-01-15T10:46:40;101192.13;;;-5.09;87.53
66703;BME280;60933;46.398;-63.798;2024-01-15T10:49:09;101175.22;;;-5.11;87.64
66703;BME280;60933;46.398;-63.798;2024-01-15T10:51:38;101206.22;;;-5.12;86.68
66703;BME280;60933;46.398;-63.798;2024-01-15T10:54:09;101193.81;;;-5.09;85.68
66703;BME280;60933;46.398;-63.798;2024-01-15T10:56:39;101189.56;;;-5.10;85.54
66703;BME280;60933;46.398;-63.798;2024-01-15T10:59:08;101189.56;;;-5.10;85.25
66703;BME280;60933;46.398;-63.798;2024-01-15T11:01:38;101215.38;;;-5.14;84.57
66703;BME280;60933;46.398;-63.798;2024-01-15T11:04:06;101202.50;;;-5.20;84.40
66703;BME280;60933;46.398;-63.798;2024-01-15T11:06:51;101191.63;;;-5.19;84.30
66703;BME280;60933;46.398;-63.798;2024-01-15T11:09:23;101196.66;;;-5.19;83.87
66703;BME280;60933;46.398;-63.798;2024-01-15T11:12:10;101219.41;;;-5.18;83.95
66703;BME280;60933;46.398;-63.798;2024-01-15T11:14:45;101222.50;;;-5.23;83.44
66703;BME280;60933;46.398;-63.798;2024-01-15T11:17:14;101237.53;;;-5.25;81.80
66703;BME280;60933;46.398;-63.798;2024-01-15T11:19:47;101238.16;;;-5.29;80.57
66703;BME280;60933;46.398;-63.798;2024-01-15T11:25:16;101276.34;;;-5.38;78.12
66703;BME280;60933;46.398;-63.798;2024-01-15T11:27:47;101258.50;;;-5.43;76.87
66703;BME280;60933;46.398;-63.798;2024-01-15T11:30:24;101266.69;;;-5.47;75.42
66703;BME280;60933;46.398;-63.798;2024-01-15T11:32:53;101269.13;;;-5.48;75.44
66703;BME280;60933;46.398;-63.798;2024-01-15T11:35:21;101274.94;;;-5.49;74.01
66703;BME280;60933;46.398;-63.798;2024-01-15T11:43:04;101273.78;;;-5.56;73.27
66703;BME280;60933;46.398;-63.798;2024-01-15T11:45:33;101305.31;;;-5.63;73.59
66703;BME280;60933;46.398;-63.798;2024-01-15T11:50:48;101283.16;;;-5.70;74.27
66703;BME280;60933;46.398;-63.798;2024-01-15T11:53:37;101277.03;;;-5.75;75.55
66703;BME280;60933;46.398;-63.798;2024-01-15T11:56:14;101304.78;;;-5.74;75.98
66703;BME280;60933;46.398;-63.798;2024-01-15T11:58:44;101303.69;;;-5.79;76.31
66703;BME280;60933;46.398;-63.798;2024-01-15T12:01:12;101319.47;;;-5.81;76.02
66703;BME280;60933;46.398;-63.798;2024-01-15T12:03:41;101323.47;;;-5.85;76.16
66703;BME280;60933;46.398;-63.798;2024-01-15T12:06:09;101340.22;;;-5.85;76.17
66703;BME280;60933;46.398;-63.798;2024-01-15T12:08:37;101340.06;;;-5.89;75.69
66703;BME280;60933;46.398;-63.798;2024-01-15T12:11:11;101345.88;;;-5.90;76.80
66703;BME280;60933;46.398;-63.798;2024-01-15T12:13:41;101344.00;;;-5.94;76.17
66703;BME280;60933;46.398;-63.798;2024-01-15T12:16:10;101353.97;;;-5.95;77.43
66703;BME280;60933;46.398;-63.798;2024-01-15T12:18:38;101370.69;;;-5.96;77.44
66703;BME280;60933;46.398;-63.798;2024-01-15T12:21:06;101372.28;;;-5.98;77.49
66703;BME280;60933;46.398;-63.798;2024-01-15T12:23:34;101373.88;;;-6.00;77.26
66703;BME280;60933;46.398;-63.798;2024-01-15T12:26:02;101383.16;;;-5.99;75.96
66703;BME280;60933;46.398;-63.798;2024-01-15T12:28:30;101380.75;;;-5.96;76.99
66703;BME280;60933;46.398;-63.798;2024-01-15T12:30:59;101383.16;;;-5.99;76.65
66703;BME280;60933;46.398;-63.798;2024-01-15T12:33:27;101390.81;;;-5.96;76.51
66703;BME280;60933;46.398;-63.798;2024-01-15T12:35:56;101397.56;;;-5.95;76.33
66703;BME280;60933;46.398;-63.798;2024-01-15T12:38:24;101407.41;;;-5.99;76.32
66703;BME280;60933;46.398;-63.798;2024-01-15T12:40:52;101408.50;;;-5.94;76.44
66703;BME280;60933;46.398;-63.798;2024-01-15T12:43:20;101411.94;;;-5.92;75.24